| time (UTC) | temp F | wind direction | speed MPH | gust MPH | rain 1hr in | rain 24hr in | rain mn in | humidity % | barometer mb |
| 20260503215009 | 60 | 276 | 4.0 | 12.0 | 0.00 | 0.00 | 0.00 | 49 | 1011.2 |
| 20260503214509 | 60 | 128 | 4.0 | 14.0 | 0.00 | 0.00 | 0.00 | 48 | 1010.7 |
| 20260503214007 | 60 | 134 | 4.0 | 14.0 | 0.00 | 0.00 | 0.00 | 48 | 1010.9 |
| 20260503213509 | 59 | 84 | 6.0 | 18.0 | 0.00 | 0.00 | 0.00 | 50 | 1011.0 |
| 20260503213020 | 60 | 255 | 3.0 | 20.0 | 0.00 | 0.00 | 0.00 | 48 | 1011.0 |
| 20260503212505 | 60 | 222 | 6.0 | 20.0 | 0.00 | 0.00 | 0.00 | 51 | 1011.1 |
| 20260503212008 | 59 | 216 | 5.0 | 13.0 | 0.00 | 0.00 | 0.00 | 49 | 1011.1 |
| 20260503211532 | 59 | 224 | 5.0 | 13.0 | 0.00 | 0.00 | 0.00 | 50 | 1011.5 |
| 20260503211012 | 59 | 202 | 1.0 | 15.0 | 0.00 | 0.00 | 0.00 | 49 | 1011.7 |
| 20260503210506 | 59 | 105 | 3.0 | 15.0 | 0.00 | 0.00 | 0.00 | 49 | 1011.7 |
| 20260503210009 | 60 | 167 | 3.0 | 15.0 | 0.00 | 0.00 | 0.00 | 49 | 1011.9 |
| 20260503205503 | 60 | 105 | 2.0 | 22.0 | 0.00 | 0.00 | 0.00 | 46 | 1011.8 |
| 20260503205007 | 60 | 140 | 3.0 | 22.0 | 0.00 | 0.00 | 0.00 | 48 | 1012.0 |
| 20260503204513 | 60 | 192 | 8.0 | 20.0 | 0.00 | 0.00 | 0.00 | 47 | 1012.4 |
| 20260503204005 | 60 | 215 | 10.0 | 19.0 | 0.00 | 0.00 | 0.00 | 48 | 1012.2 |
| 20260503203504 | 60 | 179 | 7.0 | 20.0 | 0.00 | 0.00 | 0.00 | 47 | 1012.4 |
| 20260503203014 | 60 | 211 | 8.0 | 20.0 | 0.00 | 0.00 | 0.00 | 47 | 1012.4 |
| 20260503202509 | 61 | 201 | 6.0 | 19.0 | 0.00 | 0.00 | 0.00 | 47 | 1012.4 |
| 20260503202010 | 62 | 221 | 7.0 | 18.0 | 0.00 | 0.00 | 0.00 | 46 | 1012.6 |
| 20260503201508 | 62 | 144 | 4.0 | 15.0 | 0.00 | 0.00 | 0.00 | 47 | 1012.8 |
| 20260503201005 | 61 | 198 | 3.0 | 23.0 | 0.00 | 0.00 | 0.00 | 45 | 1013.0 |
| 20260503200509 | 61 | 195 | 5.0 | 23.0 | 0.00 | 0.00 | 0.00 | 45 | 1013.3 |
| 20260503200030 | 62 | 159 | 10.0 | 22.0 | 0.00 | 0.00 | 0.00 | 44 | 1013.4 |
| 20260503195503 | 61 | 128 | 6.0 | 18.0 | 0.00 | 0.00 | 0.00 | 44 | 1013.4 |
| 20260503195003 | 61 | 207 | 5.0 | 18.0 | 0.00 | 0.00 | 0.00 | 44 | 1013.7 |
| 20260503194509 | 61 | 155 | 6.0 | 14.0 | 0.00 | 0.00 | 0.00 | 44 | 1013.9 |
| 20260503194002 | 60 | 199 | 7.0 | 14.0 | 0.00 | 0.00 | 0.00 | 46 | 1014.2 |
| 20260503193504 | 60 | 214 | 4.0 | 17.0 | 0.00 | 0.00 | 0.00 | 48 | 1014.4 |
| 20260503193015 | 60 | 230 | 5.0 | 19.0 | 0.00 | 0.00 | 0.00 | 45 | 1014.6 |
| 20260503192507 | 61 | 263 | 3.0 | 19.0 | 0.00 | 0.00 | 0.00 | 46 | 1014.8 |
| 20260503192005 | 61 | 198 | 7.0 | 22.0 | 0.00 | 0.00 | 0.00 | 46 | 1014.8 |
| 20260503191518 | 61 | 141 | 7.0 | 22.0 | 0.00 | 0.00 | 0.00 | 44 | 1014.6 |
| 20260503191007 | 61 | 227 | 8.0 | 21.0 | 0.00 | 0.00 | 0.00 | 47 | 1014.7 |
| 20260503190508 | 61 | 233 | 8.0 | 20.0 | 0.00 | 0.00 | 0.00 | 46 | 1014.5 |
| 20260503190036 | 61 | 183 | 5.0 | 13.0 | 0.00 | 0.00 | 0.00 | 45 | 1014.5 |
| 20260503185509 | 61 | 230 | 4.0 | 15.0 | 0.00 | 0.00 | 0.00 | 49 | 1014.7 |
| 20260503185008 | 61 | 214 | 7.0 | 15.0 | 0.00 | 0.00 | 0.00 | 47 | 1014.8 |
| 20260503184514 | 61 | 204 | 6.0 | 16.0 | 0.00 | 0.00 | 0.00 | 44 | 1014.8 |
| 20260503184005 | 61 | 186 | 7.0 | 18.0 | 0.00 | 0.00 | 0.00 | 43 | 1014.6 |
| 20260503183504 | 62 | 162 | 4.0 | 18.0 | 0.00 | 0.00 | 0.00 | 47 | 1014.4 |
| 20260503183017 | 63 | 210 | 2.0 | 17.0 | 0.00 | 0.00 | 0.00 | 44 | 1014.5 |
| 20260503182505 | 63 | 212 | 9.0 | 20.0 | 0.00 | 0.00 | 0.00 | 45 | 1014.9 |
| 20260503182007 | 61 | 166 | 7.0 | 20.0 | 0.00 | 0.00 | 0.00 | 43 | 1015.0 |
| 20260503181518 | 62 | 220 | 4.0 | 21.0 | 0.00 | 0.00 | 0.00 | 45 | 1015.0 |
| 20260503181005 | 61 | 167 | 9.0 | 21.0 | 0.00 | 0.00 | 0.00 | 46 | 1015.2 |
| 20260503180506 | 61 | 196 | 5.0 | 21.0 | 0.00 | 0.00 | 0.00 | 45 | 1015.1 |
| 20260503180035 | 62 | 229 | 4.0 | 17.0 | 0.00 | 0.00 | 0.00 | 47 | 1015.3 |
| 20260503175511 | 62 | 214 | 9.0 | 19.0 | 0.00 | 0.00 | 0.00 | 44 | 1015.5 |
| 20260503175005 | 61 | 217 | 5.0 | 19.0 | 0.00 | 0.00 | 0.00 | 48 | 1015.6 |
| 20260503174522 | 61 | 254 | 5.0 | 19.0 | 0.00 | 0.00 | 0.00 | 49 | 1015.9 |
| 20260503174009 | 60 | 201 | 5.0 | 19.0 | 0.00 | 0.00 | 0.00 | 47 | 1015.9 |
| 20260503173505 | 61 | 230 | 5.0 | 15.0 | 0.00 | 0.00 | 0.00 | 48 | 1016.2 |
| 20260503173011 | 61 | 209 | 6.0 | 18.0 | 0.00 | 0.00 | 0.00 | 48 | 1016.0 |
| 20260503172504 | 61 | 205 | 5.0 | 25.0 | 0.00 | 0.00 | 0.00 | 45 | 1016.3 |
| 20260503172007 | 62 | 215 | 12.0 | 24.0 | 0.00 | 0.00 | 0.00 | 48 | 1016.4 |
| 20260503171530 | 62 | 186 | 3.0 | 16.0 | 0.00 | 0.00 | 0.00 | 51 | 1016.5 |
| 20260503171007 | 61 | 189 | 7.0 | 23.0 | 0.00 | 0.00 | 0.00 | 47 | 1016.6 |
| 20260503170508 | 60 | 200 | 7.0 | 22.0 | 0.00 | 0.00 | 0.00 | 47 | 1016.8 |
| 20260503151007 | 57 | 15 | 3.0 | 17.0 | 0.00 | 0.00 | 0.00 | 54 | 1018.0 |
| 20260503150505 | 56 | 194 | 7.0 | 16.0 | 0.00 | 0.00 | 0.00 | 51 | 1018.2 |
| 20260503131011 | 49 | 212 | 7.0 | 13.0 | 0.00 | 0.00 | 0.00 | 64 | 1018.4 |
| 20260503130512 | 49 | 210 | 6.0 | 13.0 | 0.00 | 0.00 | 0.00 | 66 | 1018.4 |
| 20260503110509 | 36 | 306 | 0.0 | 0.0 | 0.00 | 0.00 | 0.00 | 82 | 1018.2 |
| 20260503090510 | 36 | 306 | 0.0 | 0.0 | 0.00 | 0.00 | 0.00 | 82 | 1018.3 |
| 20260503081537 | 35 | 306 | 0.0 | 0.0 | 0.00 | 0.00 | 0.00 | 83 | 1018.3 |
| 20260503081009 | 35 | 306 | 0.0 | 0.0 | 0.00 | 0.00 | 0.00 | 83 | 1018.3 |
| 20260503080508 | 35 | 306 | 0.0 | 0.0 | 0.00 | 0.00 | 0.00 | 83 | 1018.4 |
| 20260503072509 | 35 | 306 | 0.0 | 0.0 | 0.00 | 0.00 | 0.00 | 83 | 1018.4 |
| 20260503072013 | 35 | 306 | 0.0 | 0.0 | 0.00 | 0.00 | 0.00 | 83 | 1018.4 |
| 20260503071528 | 35 | 306 | 0.0 | 0.0 | 0.00 | 0.00 | 0.00 | 83 | 1018.4 |
| 20260503071006 | 35 | 306 | 0.0 | 0.0 | 0.00 | 0.00 | 0.00 | 83 | 1018.3 |
| 20260503070508 | 35 | 306 | 0.0 | 0.0 | 0.00 | 0.00 | 0.00 | 83 | 1018.4 |
| 20260503055004 | 35 | 306 | 0.0 | 0.0 | 0.00 | 0.00 | 0.00 | 82 | 1018.7 |
| 20260503054525 | 35 | 306 | 0.0 | 0.0 | 0.00 | 0.00 | 0.00 | 82 | 1018.7 |
| 20260503054001 | 35 | 306 | 0.0 | 0.0 | 0.00 | 0.00 | 0.00 | 82 | 1018.8 |
| 20260503053501 | 35 | 306 | 0.0 | 0.0 | 0.00 | 0.00 | 0.00 | 81 | 1018.8 |
| 20260503053009 | 35 | 306 | 0.0 | 0.0 | 0.00 | 0.00 | 0.00 | 80 | 1018.8 |
| 20260503052502 | 35 | 306 | 0.0 | 0.0 | 0.00 | 0.00 | 0.00 | 80 | 1018.8 |
| 20260503052004 | 35 | 306 | 0.0 | 0.0 | 0.00 | 0.00 | 0.00 | 81 | 1018.8 |
| 20260503051507 | 35 | 306 | 0.0 | 0.0 | 0.00 | 0.00 | 0.00 | 81 | 1018.8 |
| 20260503051006 | 35 | 306 | 0.0 | 0.0 | 0.00 | 0.00 | 0.00 | 81 | 1018.8 |
| 20260503050502 | 35 | 306 | 0.0 | 0.0 | 0.00 | 0.00 | 0.00 | 80 | 1018.8 |
| 20260503050011 | 36 | 306 | 0.0 | 0.0 | 0.00 | 0.00 | 0.00 | 79 | 1018.8 |
| 20260503045507 | 36 | 306 | 0.0 | 0.0 | 0.00 | 0.00 | 0.00 | 80 | 1018.8 |
| 20260503045007 | 36 | 306 | 0.0 | 0.0 | 0.00 | 0.00 | 0.00 | 79 | 1018.8 |
| 20260503044508 | 36 | 306 | 0.0 | 0.0 | 0.00 | 0.00 | 0.00 | 79 | 1018.9 |
| 20260503044004 | 36 | 306 | 0.0 | 0.0 | 0.00 | 0.00 | 0.00 | 78 | 1018.9 |
| 20260503043507 | 36 | 306 | 0.0 | 0.0 | 0.00 | 0.00 | 0.00 | 78 | 1018.9 |
| 20260503043005 | 36 | 306 | 0.0 | 0.0 | 0.00 | 0.00 | 0.00 | 79 | 1018.9 |
| 20260503042502 | 36 | 306 | 0.0 | 0.0 | 0.00 | 0.00 | 0.00 | 79 | 1018.9 |
| 20260503042002 | 37 | 306 | 0.0 | 0.0 | 0.00 | 0.00 | 0.00 | 79 | 1018.9 |
| 20260503041506 | 37 | 306 | 0.0 | 0.0 | 0.00 | 0.00 | 0.00 | 79 | 1018.9 |
| 20260503041002 | 37 | 306 | 0.0 | 0.0 | 0.00 | 0.00 | 0.00 | 77 | 1019.0 |
| 20260503040505 | 37 | 306 | 0.0 | 0.0 | 0.00 | 0.00 | 0.00 | 76 | 1019.0 |
| 20260503040013 | 37 | 306 | 0.0 | 0.0 | 0.00 | 0.00 | 0.00 | 75 | 1019.0 |
| 20260503035503 | 37 | 306 | 0.0 | 0.0 | 0.00 | 0.00 | 0.00 | 77 | 1019.1 |
| 20260503035004 | 37 | 306 | 0.0 | 0.0 | 0.00 | 0.00 | 0.00 | 77 | 1019.1 |
| 20260503034514 | 37 | 306 | 0.0 | 0.0 | 0.00 | 0.00 | 0.00 | 77 | 1019.1 |
| 20260503034006 | 37 | 306 | 0.0 | 0.0 | 0.00 | 0.00 | 0.00 | 76 | 1019.2 |
| 20260503033503 | 37 | 306 | 0.0 | 0.0 | 0.00 | 0.00 | 0.00 | 76 | 1019.0 |
| 20260503033020 | 38 | 306 | 0.0 | 0.0 | 0.00 | 0.00 | 0.00 | 75 | 1018.9 |
| 20260503032506 | 38 | 306 | 0.0 | 0.0 | 0.00 | 0.00 | 0.00 | 74 | 1018.8 |
| 20260503032009 | 38 | 306 | 0.0 | 0.0 | 0.00 | 0.00 | 0.00 | 75 | 1018.8 |
| 20260503031507 | 38 | 306 | 0.0 | 0.0 | 0.00 | 0.00 | 0.00 | 73 | 1018.9 |
| 20260503031004 | 38 | 306 | 0.0 | 0.0 | 0.00 | 0.00 | 0.00 | 73 | 1018.9 |
| 20260503030502 | 38 | 306 | 0.0 | 0.0 | 0.00 | 0.00 | 0.00 | 73 | 1018.9 |
| 20260503030007 | 38 | 306 | 0.0 | 0.0 | 0.00 | 0.00 | 0.00 | 75 | 1018.9 |
| 20260503025502 | 39 | 306 | 0.0 | 0.0 | 0.00 | 0.00 | 0.00 | 73 | 1018.9 |
| 20260503025002 | 39 | 306 | 0.0 | 0.0 | 0.00 | 0.00 | 0.00 | 71 | 1018.9 |
| 20260503024513 | 39 | 306 | 0.0 | 0.0 | 0.00 | 0.00 | 0.00 | 71 | 1018.8 |
| 20260503024004 | 39 | 306 | 0.0 | 0.0 | 0.00 | 0.00 | 0.00 | 72 | 1018.7 |
| 20260503023508 | 39 | 306 | 0.0 | 0.0 | 0.00 | 0.00 | 0.00 | 70 | 1018.7 |
| 20260503023015 | 39 | 306 | 0.0 | 0.0 | 0.00 | 0.00 | 0.00 | 68 | 1018.7 |
| 20260503022503 | 40 | 306 | 0.0 | 0.0 | 0.00 | 0.00 | 0.00 | 69 | 1018.7 |
| 20260503022004 | 40 | 306 | 0.0 | 0.0 | 0.00 | 0.00 | 0.00 | 68 | 1018.7 |
| 20260503021525 | 40 | 306 | 0.0 | 0.0 | 0.00 | 0.00 | 0.00 | 68 | 1018.7 |
| 20260503021009 | 41 | 306 | 0.0 | 0.0 | 0.00 | 0.00 | 0.00 | 69 | 1018.7 |
| 20260503020502 | 41 | 306 | 0.0 | 0.0 | 0.00 | 0.00 | 0.00 | 67 | 1018.6 |
| 20260503020006 | 41 | 306 | 0.0 | 0.0 | 0.00 | 0.00 | 0.00 | 68 | 1018.6 |
| 20260503015506 | 41 | 306 | 0.0 | 0.0 | 0.00 | 0.00 | 0.00 | 66 | 1018.6 |
| 20260503015002 | 41 | 306 | 0.0 | 0.0 | 0.00 | 0.00 | 0.00 | 65 | 1018.6 |
| 20260503014511 | 42 | 306 | 0.0 | 0.0 | 0.00 | 0.00 | 0.00 | 65 | 1018.5 |
| 20260503014004 | 42 | 306 | 0.0 | 0.0 | 0.00 | 0.00 | 0.00 | 66 | 1018.5 |
| 20260503013506 | 42 | 306 | 0.0 | 0.0 | 0.00 | 0.00 | 0.00 | 62 | 1018.4 |
| 20260503013006 | 42 | 306 | 0.0 | 0.0 | 0.00 | 0.00 | 0.00 | 65 | 1018.4 |
| 20260503012507 | 43 | 306 | 0.0 | 0.0 | 0.00 | 0.00 | 0.00 | 64 | 1018.3 |
| 20260503012007 | 43 | 306 | 0.0 | 0.0 | 0.00 | 0.00 | 0.00 | 63 | 1018.3 |
| 20260503011521 | 43 | 306 | 0.0 | 0.0 | 0.00 | 0.00 | 0.00 | 63 | 1018.2 |
| 20260503011004 | 44 | 306 | 0.0 | 0.0 | 0.00 | 0.00 | 0.00 | 62 | 1018.3 |
| 20260503010508 | 44 | 306 | 0.0 | 0.0 | 0.00 | 0.00 | 0.00 | 58 | 1018.2 |
| 20260503010021 | 45 | 306 | 0.0 | 0.0 | 0.00 | 0.00 | 0.00 | 57 | 1018.2 |
| 20260503005502 | 45 | 306 | 0.0 | 0.0 | 0.00 | 0.00 | 0.00 | 56 | 1018.2 |
| 20260503005003 | 46 | 306 | 0.0 | 0.0 | 0.00 | 0.00 | 0.00 | 56 | 1018.3 |
| 20260503004520 | 46 | 306 | 0.0 | 0.0 | 0.00 | 0.00 | 0.00 | 52 | 1018.2 |
| 20260503004006 | 47 | 306 | 0.0 | 0.0 | 0.00 | 0.00 | 0.00 | 53 | 1018.2 |
| 20260503003503 | 48 | 306 | 0.0 | 0.0 | 0.00 | 0.00 | 0.00 | 48 | 1018.1 |
| 20260503003015 | 48 | 306 | 0.0 | 0.0 | 0.00 | 0.00 | 0.00 | 49 | 1018.1 |
| 20260503002504 | 49 | 306 | 0.0 | 0.0 | 0.00 | 0.00 | 0.00 | 46 | 1018.1 |
| 20260503002004 | 50 | 306 | 0.0 | 0.0 | 0.00 | 0.00 | 0.00 | 45 | 1018.1 |
| 20260503001516 | 51 | 306 | 0.0 | 0.0 | 0.00 | 0.00 | 0.00 | 43 | 1018.1 |
| 20260503001009 | 51 | 306 | 0.0 | 0.0 | 0.00 | 0.00 | 0.00 | 39 | 1018.1 |
| 20260503000513 | 52 | 306 | 0.0 | 0.0 | 0.00 | 0.00 | 0.00 | 42 | 1018.1 |
| 20260503000010 | 52 | 306 | 0.0 | 0.0 | 0.00 | 0.00 | 0.00 | 40 | 1018.1 |
| 20260502235505 | 53 | 306 | 0.0 | 3.0 | 0.00 | 0.00 | 0.00 | 37 | 1018.1 |
| 20260502235012 | 53 | 306 | 0.0 | 3.0 | 0.00 | 0.00 | 0.00 | 39 | 1018.1 |
| 20260502234507 | 53 | 306 | 0.0 | 7.0 | 0.00 | 0.00 | 0.00 | 39 | 1018.1 |
| 20260502234003 | 53 | 306 | 2.0 | 7.0 | 0.00 | 0.00 | 0.00 | 37 | 1018.1 |
| 20260502233503 | 53 | 304 | 0.0 | 8.0 | 0.00 | 0.00 | 0.00 | 40 | 1018.1 |
| 20260502233012 | 54 | 302 | 2.0 | 10.0 | 0.00 | 0.00 | 0.00 | 38 | 1018.0 |
| 20260502232504 | 54 | 304 | 2.0 | 10.0 | 0.00 | 0.00 | 0.00 | 37 | 1018.0 |
| 20260502232004 | 54 | 278 | 1.0 | 10.0 | 0.00 | 0.00 | 0.00 | 36 | 1018.0 |
| 20260502231516 | 54 | 284 | 3.0 | 9.0 | 0.00 | 0.00 | 0.00 | 39 | 1018.0 |
| 20260502231009 | 53 | 10 | 2.0 | 12.0 | 0.00 | 0.00 | 0.00 | 37 | 1018.1 |
| 20260502230505 | 53 | 307 | 5.0 | 12.0 | 0.00 | 0.00 | 0.00 | 35 | 1018.1 |
| 20260502230020 | 53 | 319 | 3.0 | 11.0 | 0.00 | 0.00 | 0.00 | 36 | 1018.1 |
| 20260502225507 | 53 | 327 | 1.0 | 6.0 | 0.00 | 0.00 | 0.00 | 39 | 1018.1 |
| 20260502225004 | 53 | 334 | 2.0 | 9.0 | 0.00 | 0.00 | 0.00 | 39 | 1018.0 |
| 20260502224519 | 52 | 337 | 3.0 | 9.0 | 0.00 | 0.00 | 0.00 | 37 | 1018.1 |
| 20260502224011 | 53 | 331 | 2.0 | 9.0 | 0.00 | 0.00 | 0.00 | 37 | 1018.1 |
| 20260502223510 | 54 | 333 | 4.0 | 10.0 | 0.00 | 0.00 | 0.00 | 39 | 1018.1 |
| 20260502223009 | 55 | 327 | 4.0 | 10.0 | 0.00 | 0.00 | 0.00 | 35 | 1018.0 |
| 20260502222504 | 54 | 338 | 1.0 | 8.0 | 0.00 | 0.00 | 0.00 | 38 | 1018.0 |
| 20260502222007 | 53 | 339 | 0.0 | 8.0 | 0.00 | 0.00 | 0.00 | 41 | 1018.0 |
| 20260502221508 | 52 | 340 | 3.0 | 9.0 | 0.00 | 0.00 | 0.00 | 36 | 1018.1 |
| 20260502221006 | 53 | 331 | 3.0 | 11.0 | 0.00 | 0.00 | 0.00 | 38 | 1018.1 |
| 20260502220508 | 55 | 314 | 3.0 | 11.0 | 0.00 | 0.00 | 0.00 | 37 | 1018.1 |
| 20260502220020 | 54 | 340 | 3.0 | 9.0 | 0.00 | 0.00 | 0.00 | 37 | 1018.1 |
| 20260502215505 | 53 | 317 | 0.0 | 10.0 | 0.00 | 0.00 | 0.00 | 37 | 1018.1 |